createdAt,value
2023-02-14T00:00:21.538Z,77.52
2023-02-14T00:02:49.396Z,76.83
2023-02-14T00:05:16.080Z,76.95
2023-02-14T00:07:42.655Z,75.52
2023-02-14T00:10:10.199Z,75.27
2023-02-14T00:12:36.730Z,74.90
2023-02-14T00:15:03.582Z,75.93
2023-02-14T00:17:30.168Z,75.87
2023-02-14T00:19:56.680Z,75.82
2023-02-14T00:22:23.213Z,75.16
2023-02-14T00:24:49.830Z,75.74
2023-02-14T00:27:16.511Z,76.05
2023-02-14T00:29:43.179Z,75.47
2023-02-14T00:32:10.139Z,75.35
2023-02-14T00:34:36.823Z,75.41
2023-02-14T00:37:06.423Z,76.17
2023-02-14T00:39:33.017Z,75.91
2023-02-14T00:41:59.526Z,76.09
2023-02-14T00:44:26.144Z,75.40
2023-02-14T00:46:52.686Z,76.18
2023-02-14T00:49:19.264Z,77.30
2023-02-14T00:51:45.934Z,77.67
2023-02-14T00:54:12.555Z,76.63
2023-02-14T00:56:39.211Z,76.55
2023-02-14T00:59:05.786Z,75.71
2023-02-14T01:01:32.378Z,76.32
2023-02-14T01:03:58.987Z,77.30
2023-02-14T01:06:25.703Z,75.80
2023-02-14T01:08:52.284Z,77.06
2023-02-14T01:11:21.427Z,77.16
2023-02-14T01:13:49.605Z,76.84
2023-02-14T01:16:20.035Z,76.07
2023-02-14T01:18:48.836Z,76.72
2023-02-14T01:21:21.386Z,75.66
2023-02-14T01:23:50.188Z,76.21
2023-02-14T01:26:17.606Z,76.46
2023-02-14T01:28:44.671Z,75.94
2023-02-14T01:31:15.074Z,76.10
2023-02-14T01:33:43.726Z,78.02
2023-02-14T01:36:19.296Z,77.35
2023-02-14T01:38:46.456Z,76.97
2023-02-14T01:41:13.313Z,77.41
2023-02-14T01:43:51.779Z,78.33
2023-02-14T01:46:18.552Z,77.40
2023-02-14T01:48:45.897Z,77.90
2023-02-14T01:51:14.293Z,77.94
2023-02-14T01:53:40.996Z,78.62
2023-02-14T01:56:13.313Z,78.78
2023-02-14T01:58:44.193Z,78.99
2023-02-14T02:01:14.735Z,78.77
2023-02-14T02:03:49.335Z,78.79
2023-02-14T02:06:21.977Z,79.22
2023-02-14T02:09:26.257Z,77.43
2023-02-14T02:11:52.928Z,77.97
2023-02-14T02:14:21.839Z,78.22
2023-02-14T02:17:23.679Z,76.43
2023-02-14T02:20:02.144Z,75.94
2023-02-14T02:22:42.310Z,76.52
2023-02-14T02:25:52.561Z,77.48
2023-02-14T02:28:24.981Z,76.19
2023-02-14T02:31:13.277Z,76.58
2023-02-14T02:34:03.850Z,76.66
2023-02-14T02:36:50.450Z,76.78
2023-02-14T02:39:49.176Z,76.61
2023-02-14T02:42:31.375Z,75.85
2023-02-14T02:45:12.248Z,76.64
2023-02-14T02:48:06.576Z,76.37
2023-02-14T02:50:41.503Z,76.41
2023-02-14T02:53:14.932Z,76.87
2023-02-14T02:55:44.552Z,75.41
2023-02-14T02:58:11.298Z,76.96
2023-02-14T03:00:37.950Z,75.68
2023-02-14T03:03:05.124Z,76.70
2023-02-14T03:05:34.225Z,76.44
2023-02-14T03:08:00.846Z,76.37
2023-02-14T03:10:32.104Z,77.92
2023-02-14T03:13:10.465Z,77.40
2023-02-14T03:15:49.276Z,77.24
2023-02-14T03:18:44.566Z,77.40
2023-02-14T03:21:14.070Z,77.09
2023-02-14T03:23:50.411Z,77.39
2023-02-14T03:26:20.494Z,77.28
2023-02-14T03:29:12.743Z,77.73
2023-02-14T03:32:03.878Z,78.17
2023-02-14T03:34:38.595Z,77.99
2023-02-14T03:37:17.125Z,77.83
2023-02-14T03:40:22.683Z,77.17
2023-02-14T03:42:54.509Z,77.88
2023-02-14T03:45:27.660Z,77.51
2023-02-14T03:47:58.612Z,77.06
2023-02-14T03:50:28.014Z,77.37
2023-02-14T03:52:58.104Z,78.13
2023-02-14T03:55:36.077Z,77.25
2023-02-14T03:58:20.241Z,77.81
2023-02-14T04:00:50.390Z,77.96
2023-02-14T04:03:19.472Z,76.93
2023-02-14T04:05:47.175Z,76.95
2023-02-14T04:08:26.396Z,76.72
2023-02-14T04:10:54.300Z,76.80
2023-02-14T04:13:21.356Z,76.75
2023-02-14T04:15:48.219Z,76.35
2023-02-14T04:18:15.032Z,77.22
2023-02-14T04:20:41.725Z,76.15
2023-02-14T04:23:08.262Z,76.66
2023-02-14T04:25:34.827Z,77.20
2023-02-14T04:28:01.439Z,77.81
2023-02-14T04:30:28.143Z,77.45
2023-02-14T04:32:54.728Z,78.56
2023-02-14T04:35:21.408Z,78.41
2023-02-14T04:37:47.958Z,77.80
2023-02-14T04:40:14.934Z,77.58
2023-02-14T04:42:41.484Z,77.09
2023-02-14T04:45:08.500Z,77.85
2023-02-14T04:47:35.036Z,77.37
2023-02-14T04:50:01.702Z,78.69
2023-02-14T04:52:28.328Z,77.65
2023-02-14T04:54:55.042Z,77.36
2023-02-14T04:57:21.805Z,78.52
2023-02-14T04:59:48.531Z,77.94
2023-02-14T05:02:15.447Z,77.13
2023-02-14T05:04:42.218Z,76.84
2023-02-14T05:07:08.891Z,77.66
2023-02-14T05:09:35.588Z,77.99
2023-02-14T05:12:02.178Z,77.72
2023-02-14T05:14:28.700Z,77.73
2023-02-14T05:16:55.338Z,76.61
2023-02-14T05:19:21.958Z,77.07
2023-02-14T05:21:48.637Z,77.15
2023-02-14T05:24:16.292Z,77.92
2023-02-14T05:26:43.048Z,76.95
2023-02-14T05:29:09.683Z,76.49
2023-02-14T05:31:36.471Z,77.21
2023-02-14T05:34:05.388Z,77.17
2023-02-14T05:36:31.931Z,77.26
2023-02-14T05:38:58.536Z,77.46
2023-02-14T05:41:25.237Z,76.90
2023-02-14T05:43:51.820Z,77.19
2023-02-14T05:46:18.475Z,77.86
2023-02-14T05:48:45.076Z,77.73
2023-02-14T05:51:11.705Z,77.68
2023-02-14T05:53:38.742Z,76.55
2023-02-14T05:56:05.917Z,76.84
2023-02-14T05:58:32.834Z,76.43
2023-02-14T06:01:00.014Z,76.82
2023-02-14T06:03:27.185Z,76.92
2023-02-14T06:05:53.777Z,77.41
2023-02-14T06:08:20.393Z,76.74
2023-02-14T06:10:46.952Z,75.37
2023-02-14T06:13:13.631Z,76.65
2023-02-14T06:15:40.219Z,76.51
2023-02-14T06:18:07.107Z,76.75
2023-02-14T06:20:34.013Z,76.89
2023-02-14T06:23:01.475Z,76.68
2023-02-14T06:25:28.196Z,76.36
2023-02-14T06:27:58.861Z,76.50
2023-02-14T06:30:26.710Z,76.10
2023-02-14T06:32:53.512Z,76.46
2023-02-14T06:35:23.137Z,76.34
2023-02-14T06:37:49.876Z,76.70
2023-02-14T06:40:26.800Z,76.64
2023-02-14T06:42:53.479Z,75.79
2023-02-14T06:45:24.755Z,76.31
2023-02-14T06:47:51.586Z,76.56
2023-02-14T06:50:18.540Z,75.40
2023-02-14T06:52:47.035Z,76.05
2023-02-14T06:55:13.773Z,74.07
2023-02-14T06:57:40.663Z,74.92
2023-02-14T07:00:08.516Z,74.98
2023-02-14T07:02:35.385Z,74.13
2023-02-14T07:05:02.028Z,74.81
2023-02-14T07:07:28.845Z,73.47
2023-02-14T07:09:55.866Z,74.97
2023-02-14T07:12:22.448Z,73.78
2023-02-14T07:14:49.045Z,73.63
2023-02-14T07:17:19.275Z,73.77
2023-02-14T07:19:45.871Z,72.57
2023-02-14T07:22:12.490Z,73.65
2023-02-14T07:24:39.144Z,73.47
2023-02-14T07:27:05.879Z,72.66
2023-02-14T07:32:13.951Z,73.24
2023-02-14T07:34:40.716Z,74.18
2023-02-14T07:37:07.487Z,72.96
2023-02-14T07:39:34.268Z,72.88
2023-02-14T07:42:00.941Z,72.40
2023-02-14T07:44:27.658Z,72.86
2023-02-14T07:46:56.351Z,72.71
2023-02-14T07:49:24.133Z,72.73
2023-02-14T07:51:50.741Z,71.64
2023-02-14T07:54:18.383Z,70.67
2023-02-14T07:56:46.160Z,70.68
2023-02-14T07:59:14.826Z,70.95
2023-02-14T08:01:44.416Z,70.02
2023-02-14T08:04:11.493Z,69.36
2023-02-14T08:06:39.205Z,69.47
2023-02-14T08:09:05.960Z,69.27
2023-02-14T08:11:33.638Z,68.93
2023-02-14T08:14:02.779Z,68.40
2023-02-14T08:16:33.303Z,68.34
2023-02-14T08:19:00.636Z,68.27
2023-02-14T08:21:27.856Z,68.23
2023-02-14T08:23:54.533Z,69.62
2023-02-14T08:26:21.426Z,69.64
2023-02-14T08:28:48.324Z,68.86
2023-02-14T08:31:34.695Z,68.65
2023-02-14T08:34:02.082Z,69.18
2023-02-14T08:36:28.724Z,68.47
2023-02-14T08:38:55.443Z,68.35
2023-02-14T08:41:22.087Z,68.88
2023-02-14T08:43:50.691Z,68.13
2023-02-14T08:46:17.468Z,68.68
2023-02-14T08:48:47.228Z,68.19
2023-02-14T08:51:14.976Z,68.06
2023-02-14T08:53:42.911Z,67.74
2023-02-14T08:56:12.033Z,68.08
2023-02-14T08:58:39.220Z,67.98
2023-02-14T09:01:15.355Z,67.35
2023-02-14T09:03:43.031Z,66.97
2023-02-14T09:06:19.176Z,67.46
2023-02-14T09:08:46.604Z,65.99
2023-02-14T09:11:22.393Z,66.86
2023-02-14T09:13:50.826Z,66.32
2023-02-14T09:16:18.627Z,66.14
2023-02-14T09:18:46.937Z,66.78
2023-02-14T09:21:19.060Z,66.41
2023-02-14T09:23:45.952Z,65.70
2023-02-14T09:26:14.330Z,66.08
2023-02-14T09:28:41.289Z,66.03
2023-02-14T09:31:10.260Z,65.87
2023-02-14T09:33:37.265Z,65.89
2023-02-14T09:36:06.631Z,65.92
2023-02-14T09:38:33.148Z,64.80
2023-02-14T09:41:00.107Z,65.16
2023-02-14T09:43:38.231Z,64.06
2023-02-14T09:46:11.534Z,64.83
2023-02-14T09:48:45.390Z,62.13
2023-02-14T09:51:16.277Z,60.76
2023-02-14T09:53:51.560Z,59.96
2023-02-14T09:56:51.888Z,59.91
2023-02-14T09:59:28.994Z,54.30
2023-02-14T10:02:07.956Z,51.37
2023-02-14T10:04:42.767Z,48.93
2023-02-14T10:07:27.342Z,49.07
2023-02-14T10:10:14.090Z,44.15
2023-02-14T10:12:50.554Z,43.85
2023-02-14T10:15:25.661Z,43.31
2023-02-14T10:18:01.028Z,45.05
2023-02-14T10:20:35.222Z,45.95
2023-02-14T10:23:06.820Z,45.55
2023-02-14T10:25:46.312Z,42.83
2023-02-14T10:28:16.833Z,40.51
2023-02-14T10:30:55.243Z,38.49
2023-02-14T10:33:27.956Z,37.60
2023-02-14T10:36:10.456Z,36.88
2023-02-14T10:39:00.889Z,36.89
2023-02-14T10:41:40.953Z,38.11
2023-02-14T10:44:26.434Z,36.93
2023-02-14T10:47:13.147Z,37.42
2023-02-14T10:49:54.855Z,32.42
2023-02-14T10:52:28.602Z,34.43
2023-02-14T10:55:12.421Z,33.23
2023-02-14T10:57:50.844Z,29.90
2023-02-14T11:00:24.209Z,29.67
2023-02-14T11:02:58.296Z,29.11
2023-02-14T11:05:49.056Z,29.32
2023-02-14T11:08:18.825Z,26.82
2023-02-14T11:10:48.573Z,25.95
2023-02-14T11:13:34.364Z,25.88
2023-02-14T11:16:20.489Z,27.62
2023-02-14T11:19:20.028Z,25.76
2023-02-14T11:21:49.679Z,24.62
2023-02-14T11:24:30.047Z,27.02
2023-02-14T11:27:00.826Z,29.43
2023-02-14T11:29:47.755Z,24.59
2023-02-14T11:32:27.156Z,22.77
2023-02-14T11:35:08.934Z,22.94
2023-02-14T11:37:44.506Z,23.96
2023-02-14T11:40:42.456Z,24.69
2023-02-14T11:43:15.099Z,23.17
2023-02-14T11:45:43.967Z,21.40
2023-02-14T11:48:37.691Z,21.12
2023-02-14T11:51:11.864Z,21.61
2023-02-14T11:53:56.346Z,26.88
2023-02-14T11:56:25.377Z,30.90
2023-02-14T13:38:06.975Z,45.02
2023-02-14T13:40:35.764Z,45.39
2023-02-14T13:43:03.012Z,45.17
2023-02-14T13:45:29.630Z,45.25
2023-02-14T13:48:09.235Z,44.94
2023-02-14T13:51:07.766Z,45.56
2023-02-14T13:53:43.292Z,46.41
2023-02-14T13:56:12.585Z,46.63
2023-02-14T13:58:55.970Z,47.37
2023-02-14T14:01:43.340Z,47.44
2023-02-14T14:04:34.291Z,46.19
2023-02-14T14:07:03.718Z,46.35
2023-02-14T14:09:42.252Z,46.48
2023-02-14T14:12:27.033Z,46.76
2023-02-14T14:15:05.782Z,47.17
2023-02-14T14:18:06.658Z,46.61
2023-02-14T14:27:46.071Z,49.25
2023-02-14T14:30:36.409Z,48.33
2023-02-14T14:33:26.088Z,47.32
2023-02-14T14:36:21.330Z,48.76
2023-02-14T14:38:50.527Z,48.79
2023-02-14T14:41:17.868Z,48.55
2023-02-14T14:44:05.698Z,48.57
2023-02-14T14:46:35.837Z,49.94
2023-02-14T14:49:02.949Z,50.00
2023-02-14T14:51:36.152Z,50.34
2023-02-14T14:54:22.127Z,51.25
2023-02-14T14:56:59.200Z,50.37
2023-02-14T14:59:30.325Z,51.70
2023-02-14T15:01:57.330Z,52.16
2023-02-14T15:04:28.789Z,50.86
2023-02-14T15:06:57.284Z,52.18
2023-02-14T15:09:39.302Z,52.82
2023-02-14T15:12:06.855Z,51.93
2023-02-14T15:14:43.820Z,52.40
2023-02-14T15:17:23.558Z,52.79
2023-02-14T15:19:56.888Z,53.83
2023-02-14T15:22:28.020Z,53.06
2023-02-14T15:24:54.866Z,54.46
2023-02-14T15:27:24.879Z,53.04
2023-02-14T15:30:06.183Z,53.23
2023-02-14T15:32:35.336Z,53.86
2023-02-14T15:35:04.501Z,54.52
2023-02-14T15:37:32.169Z,54.69
2023-02-14T15:39:59.582Z,55.31
2023-02-14T15:42:31.188Z,55.44
2023-02-14T15:45:36.711Z,55.49
2023-02-14T15:48:11.658Z,54.14
2023-02-14T15:50:46.828Z,55.87
2023-02-14T15:53:19.275Z,56.63
2023-02-14T15:55:50.354Z,56.25
2023-02-14T15:58:25.451Z,55.39
2023-02-14T16:00:53.500Z,56.41
2023-02-14T16:03:24.290Z,56.83
2023-02-14T16:05:51.747Z,56.67
2023-02-14T16:08:42.347Z,57.69
2023-02-14T16:11:26.794Z,57.78
2023-02-14T16:13:53.822Z,56.79
2023-02-14T16:16:20.443Z,57.27
2023-02-14T16:18:53.329Z,58.11
2023-02-14T16:21:25.982Z,58.99
2023-02-14T16:24:07.876Z,59.21
2023-02-14T16:26:35.940Z,58.61
2023-02-14T16:29:03.542Z,59.46
2023-02-14T16:31:30.829Z,58.61
2023-02-14T16:33:57.458Z,59.03
2023-02-14T16:36:32.960Z,58.99
2023-02-14T16:39:03.464Z,59.20
2023-02-14T16:41:31.439Z,59.20
2023-02-14T16:43:58.440Z,59.26
2023-02-14T16:46:32.995Z,59.65
2023-02-14T16:48:59.708Z,59.87
2023-02-14T16:51:29.538Z,60.50
2023-02-14T16:53:59.334Z,60.18
2023-02-14T16:56:44.746Z,60.72
2023-02-14T16:59:11.425Z,60.60
2023-02-14T17:01:38.326Z,60.84
2023-02-14T17:04:05.242Z,61.18
2023-02-14T17:06:33.861Z,60.76
2023-02-14T17:09:04.457Z,61.58
2023-02-14T17:11:32.508Z,61.40
2023-02-14T17:13:59.422Z,62.17
2023-02-14T17:16:26.064Z,62.16
2023-02-14T17:18:53.013Z,62.31
2023-02-14T17:21:23.909Z,62.23
2023-02-14T17:23:50.994Z,63.36
2023-02-14T17:26:17.542Z,63.32
2023-02-14T17:28:44.614Z,63.22
2023-02-14T17:31:11.283Z,63.62
2023-02-14T17:33:37.904Z,63.48
2023-02-14T17:36:06.462Z,63.15
2023-02-14T17:38:34.511Z,63.06
2023-02-14T17:41:11.053Z,63.15
2023-02-14T17:43:37.719Z,63.22
2023-02-14T17:46:05.202Z,63.46
2023-02-14T17:48:31.923Z,63.60
2023-02-14T17:51:04.270Z,63.65
2023-02-14T17:53:30.881Z,63.94
2023-02-14T17:55:57.553Z,63.96
2023-02-14T17:58:24.480Z,64.39
2023-02-14T18:00:51.170Z,64.69
2023-02-14T18:03:17.714Z,64.46
2023-02-14T18:05:44.328Z,64.44
2023-02-14T18:08:11.011Z,64.95
2023-02-14T18:10:37.844Z,65.12
2023-02-14T18:13:04.486Z,64.92
2023-02-14T18:15:31.051Z,65.69
2023-02-14T18:17:57.608Z,66.36
2023-02-14T18:20:24.220Z,66.33
2023-02-14T18:22:50.755Z,66.40
2023-02-14T18:25:17.484Z,66.68
2023-02-14T18:27:44.018Z,66.46
2023-02-14T18:30:11.005Z,66.45
2023-02-14T18:32:37.623Z,67.69
2023-02-14T18:35:04.396Z,68.15
2023-02-14T18:37:31.054Z,67.34
2023-02-14T18:39:57.688Z,66.71
2023-02-14T18:42:24.307Z,66.67
2023-02-14T18:44:51.058Z,68.13
2023-02-14T18:47:17.679Z,68.17
2023-02-14T18:49:44.268Z,67.86
2023-02-14T18:52:10.928Z,67.25
2023-02-14T18:54:37.488Z,68.25
2023-02-14T18:57:04.118Z,66.99
2023-02-14T18:59:30.687Z,68.28
2023-02-14T19:01:57.268Z,68.03
2023-02-14T19:04:23.898Z,67.95
2023-02-14T19:06:50.810Z,68.10
2023-02-14T19:09:17.458Z,67.79
2023-02-14T19:11:44.474Z,67.44
2023-02-14T19:14:11.303Z,67.95
2023-02-14T19:16:42.688Z,68.01
2023-02-14T19:19:10.318Z,68.27
2023-02-14T19:21:36.960Z,68.38
2023-02-14T19:24:05.743Z,68.98
2023-02-14T19:26:34.656Z,68.47
2023-02-14T19:29:04.816Z,68.78
2023-02-14T19:31:31.720Z,68.43
2023-02-14T19:33:58.544Z,68.12
2023-02-14T19:36:25.081Z,69.74
2023-02-14T19:38:52.873Z,68.86
2023-02-14T19:41:28.741Z,69.26
2023-02-14T19:43:57.149Z,68.90
2023-02-14T19:46:25.096Z,68.89
2023-02-14T19:48:52.299Z,69.53
2023-02-14T19:51:27.010Z,69.11
2023-02-14T19:53:55.162Z,70.43
2023-02-14T19:56:27.283Z,70.04
2023-02-14T19:58:54.621Z,70.95
2023-02-14T20:01:30.549Z,70.00
2023-02-14T20:03:57.906Z,70.18
2023-02-14T20:06:26.855Z,70.12
2023-02-14T20:08:53.599Z,69.76
2023-02-14T20:11:29.043Z,70.71
2023-02-14T20:13:55.739Z,70.55
2023-02-14T20:16:27.095Z,70.92
2023-02-14T20:18:57.021Z,70.33
2023-02-14T20:21:25.339Z,69.41
2023-02-14T20:23:52.496Z,70.23
2023-02-14T20:26:19.602Z,70.21
2023-02-14T20:28:47.283Z,70.78
2023-02-14T20:31:15.879Z,70.15
2023-02-14T20:33:42.587Z,70.06
2023-02-14T20:36:09.213Z,69.32
2023-02-14T20:38:35.808Z,70.18
2023-02-14T20:41:07.185Z,69.12
2023-02-14T20:43:34.418Z,69.83
2023-02-14T20:46:01.998Z,69.30
2023-02-14T20:48:29.853Z,69.28
2023-02-14T20:50:57.172Z,69.83
2023-02-14T20:53:24.679Z,70.68
2023-02-14T20:55:52.653Z,70.07
2023-02-14T20:58:20.208Z,69.62
2023-02-14T21:00:46.792Z,70.22
2023-02-14T21:03:13.375Z,70.59
2023-02-14T21:05:40.052Z,70.90
2023-02-14T21:08:06.674Z,71.65
2023-02-14T21:10:33.294Z,71.11
2023-02-14T21:12:59.928Z,71.45
2023-02-14T21:15:26.584Z,72.11
2023-02-14T21:17:53.208Z,71.45
2023-02-14T21:20:19.799Z,71.32
2023-02-14T21:22:46.398Z,70.66
2023-02-14T21:25:13.025Z,70.11
2023-02-14T21:27:39.676Z,71.22
2023-02-14T21:30:07.110Z,70.29
2023-02-14T21:32:33.758Z,71.17
2023-02-14T21:35:00.386Z,72.14
2023-02-14T21:37:27.062Z,70.16
2023-02-14T21:39:53.605Z,71.08
2023-02-14T21:42:20.195Z,69.82
2023-02-14T21:44:46.965Z,71.76
2023-02-14T21:47:13.585Z,71.73
2023-02-14T21:49:40.163Z,71.24
2023-02-14T21:52:06.704Z,71.99
2023-02-14T21:54:33.212Z,73.20
2023-02-14T21:56:59.850Z,73.57
2023-02-14T21:59:26.395Z,72.80
2023-02-14T22:01:53.129Z,72.64
2023-02-14T22:04:19.858Z,73.83
2023-02-14T22:06:46.453Z,73.68
2023-02-14T22:09:14.205Z,75.35
2023-02-14T22:11:40.929Z,74.57
2023-02-14T22:14:07.556Z,74.53
2023-02-14T22:16:34.235Z,74.87
2023-02-14T22:19:00.949Z,74.78
2023-02-14T22:21:27.975Z,74.73
2023-02-14T22:23:55.364Z,74.67
2023-02-14T22:26:31.448Z,73.10
2023-02-14T22:29:00.097Z,74.78
2023-02-14T22:31:32.535Z,73.95
2023-02-14T22:33:59.256Z,73.83
2023-02-14T22:36:26.001Z,74.40
2023-02-14T22:38:52.606Z,73.31
2023-02-14T22:41:22.461Z,74.68
2023-02-14T22:43:49.051Z,74.44
2023-02-14T22:46:17.976Z,73.68
2023-02-14T22:48:44.944Z,74.00
2023-02-14T22:51:30.295Z,75.33
2023-02-14T22:54:09.404Z,74.51
2023-02-14T22:56:38.411Z,73.66
2023-02-14T22:59:17.422Z,74.61
2023-02-14T23:01:44.394Z,74.78
2023-02-14T23:04:11.510Z,74.58
2023-02-14T23:06:38.390Z,75.65
2023-02-14T23:09:07.816Z,74.17
2023-02-14T23:11:36.946Z,74.29
2023-02-14T23:14:04.520Z,74.54
2023-02-14T23:16:31.802Z,74.34
2023-02-14T23:18:58.654Z,74.40
2023-02-14T23:21:25.228Z,73.99
2023-02-14T23:23:51.895Z,74.53
2023-02-14T23:26:21.697Z,73.99
2023-02-14T23:28:48.326Z,75.77
2023-02-14T23:31:14.912Z,75.18
2023-02-14T23:33:41.518Z,74.39
2023-02-14T23:36:08.379Z,75.99
2023-02-14T23:38:34.974Z,75.03
2023-02-14T23:41:09.436Z,76.06
2023-02-14T23:43:35.959Z,74.57
2023-02-14T23:46:02.903Z,75.34
2023-02-14T23:48:29.865Z,75.24
2023-02-14T23:50:59.606Z,74.96
2023-02-14T23:53:26.162Z,75.26
2023-02-14T23:55:52.751Z,75.67
2023-02-14T23:58:19.353Z,76.33
